sensor_id;sensor_type;location;lat;lon;timestamp;pressure;altitude;pressure_sealevel;temperature;humidity
70256;BME280;57669;52.624;-1.688;2023-04-07T00:01:49;101352.83;;;6.81;48.54
70256;BME280;57669;52.624;-1.688;2023-04-07T00:04:14;101351.39;;;7.17;48.44
70256;BME280;57669;52.624;-1.688;2023-04-07T00:06:39;101347.07;;;8.05;45.92
70256;BME280;57669;52.624;-1.688;2023-04-07T00:09:04;101351.38;;;8.15;45.70
70256;BME280;57669;52.624;-1.688;2023-04-07T00:11:29;101364.33;;;7.13;46.69
70256;BME280;57669;52.624;-1.688;2023-04-07T00:13:54;101360.95;;;5.83;48.86
70256;BME280;57669;52.624;-1.688;2023-04-07T00:18:45;101363.58;;;6.92;48.03
70256;BME280;57669;52.624;-1.688;2023-04-07T00:21:10;101367.23;;;6.32;49.23
70256;BME280;57669;52.624;-1.688;2023-04-07T00:23:35;101369.49;;;7.10;47.43
70256;BME280;57669;52.624;-1.688;2023-04-07T00:26:00;101371.99;;;6.69;47.40
70256;BME280;57669;52.624;-1.688;2023-04-07T00:28:25;101365.01;;;7.74;45.68
70256;BME280;57669;52.624;-1.688;2023-04-07T00:30:50;101372.14;;;7.94;45.06
70256;BME280;57669;52.624;-1.688;2023-04-07T00:33:15;101377.72;;;6.60;48.05
70256;BME280;57669;52.624;-1.688;2023-04-07T00:35:40;101372.06;;;8.10;45.04
70256;BME280;57669;52.624;-1.688;2023-04-07T00:38:05;101375.17;;;8.22;44.61
70256;BME280;57669;52.624;-1.688;2023-04-07T00:40:31;101375.40;;;5.85;49.10
70256;BME280;57669;52.624;-1.688;2023-04-07T00:42:56;101375.99;;;4.97;51.20
70256;BME280;57669;52.624;-1.688;2023-04-07T00:45:21;101379.14;;;6.45;48.47
70256;BME280;57669;52.624;-1.688;2023-04-07T00:47:47;101377.36;;;5.06;51.20
70256;BME280;57669;52.624;-1.688;2023-04-07T00:50:12;101378.44;;;6.17;50.17
70256;BME280;57669;52.624;-1.688;2023-04-07T00:52:38;101382.31;;;5.16;51.82
70256;BME280;57669;52.624;-1.688;2023-04-07T00:55:02;101380.46;;;4.16;54.42
70256;BME280;57669;52.624;-1.688;2023-04-07T00:57:27;101381.84;;;5.24;50.74
70256;BME280;57669;52.624;-1.688;2023-04-07T00:59:53;101387.58;;;5.44;51.90
70256;BME280;57669;52.624;-1.688;2023-04-07T01:02:22;101384.79;;;5.78;50.23
70256;BME280;57669;52.624;-1.688;2023-04-07T01:04:47;101386.30;;;3.81;55.75
70256;BME280;57669;52.624;-1.688;2023-04-07T01:07:16;101381.35;;;3.58;55.66
70256;BME280;57669;52.624;-1.688;2023-04-07T01:09:38;101383.50;;;3.65;56.05
70256;BME280;57669;52.624;-1.688;2023-04-07T01:12:04;101384.75;;;4.28;54.02
70256;BME280;57669;52.624;-1.688;2023-04-07T01:14:24;101386.20;;;5.34;52.08
70256;BME280;57669;52.624;-1.688;2023-04-07T01:16:50;101385.25;;;5.03;52.27
70256;BME280;57669;52.624;-1.688;2023-04-07T01:19:23;101383.82;;;5.40;51.34
70256;BME280;57669;52.624;-1.688;2023-04-07T01:21:41;101387.97;;;6.32;49.84
70256;BME280;57669;52.624;-1.688;2023-04-07T01:26:31;101399.20;;;6.79;47.44
70256;BME280;57669;52.624;-1.688;2023-04-07T01:31:22;101399.08;;;6.12;48.96
70256;BME280;57669;52.624;-1.688;2023-04-07T01:33:46;101399.59;;;5.78;49.19
70256;BME280;57669;52.624;-1.688;2023-04-07T01:36:12;101408.13;;;6.69;46.78
70256;BME280;57669;52.624;-1.688;2023-04-07T01:38:37;101413.28;;;7.54;45.99
70256;BME280;57669;52.624;-1.688;2023-04-07T01:41:01;101416.42;;;6.33;47.13
70256;BME280;57669;52.624;-1.688;2023-04-07T01:43:27;101411.49;;;5.69;49.53
70256;BME280;57669;52.624;-1.688;2023-04-07T01:45:53;101407.27;;;4.82;51.07
70256;BME280;57669;52.624;-1.688;2023-04-07T01:48:17;101400.79;;;6.31;47.97
70256;BME280;57669;52.624;-1.688;2023-04-07T01:50:43;101397.66;;;5.49;49.11
70256;BME280;57669;52.624;-1.688;2023-04-07T01:53:08;101396.81;;;4.88;51.42
70256;BME280;57669;52.624;-1.688;2023-04-07T01:55:33;101386.99;;;5.64;48.73
70256;BME280;57669;52.624;-1.688;2023-04-07T01:58:03;101384.16;;;6.04;48.57
70256;BME280;57669;52.624;-1.688;2023-04-07T02:00:23;101382.86;;;7.02;47.10
70256;BME280;57669;52.624;-1.688;2023-04-07T02:02:53;101381.55;;;5.69;48.46
70256;BME280;57669;52.624;-1.688;2023-04-07T02:05:17;101387.18;;;7.33;46.15
70256;BME280;57669;52.624;-1.688;2023-04-07T02:07:45;101382.43;;;6.27;47.51
70256;BME280;57669;52.624;-1.688;2023-04-07T02:10:09;101380.04;;;6.16;48.18
70256;BME280;57669;52.624;-1.688;2023-04-07T02:12:30;101380.84;;;6.25;48.51
70256;BME280;57669;52.624;-1.688;2023-04-07T02:14:55;101381.21;;;5.31;50.43
70256;BME280;57669;52.624;-1.688;2023-04-07T02:17:21;101382.24;;;6.04;49.21
70256;BME280;57669;52.624;-1.688;2023-04-07T02:19:46;101389.28;;;7.46;46.45
70256;BME280;57669;52.624;-1.688;2023-04-07T02:22:11;101387.15;;;5.07;50.18
70256;BME280;57669;52.624;-1.688;2023-04-07T02:24:35;101389.09;;;7.17;47.05
70256;BME280;57669;52.624;-1.688;2023-04-07T02:27:00;101380.76;;;6.21;48.30
70256;BME280;57669;52.624;-1.688;2023-04-07T02:29:25;101381.48;;;7.03;47.24
70256;BME280;57669;52.624;-1.688;2023-04-07T02:31:50;101383.84;;;5.73;48.91
70256;BME280;57669;52.624;-1.688;2023-04-07T02:34:16;101383.78;;;7.31;46.91
70256;BME280;57669;52.624;-1.688;2023-04-07T02:36:50;101380.58;;;6.01;48.60
70256;BME280;57669;52.624;-1.688;2023-04-07T02:39:06;101375.68;;;5.46;49.51
70256;BME280;57669;52.624;-1.688;2023-04-07T02:41:31;101380.81;;;6.44;47.96
70256;BME280;57669;52.624;-1.688;2023-04-07T02:43:56;101380.16;;;5.74;49.86
70256;BME280;57669;52.624;-1.688;2023-04-07T02:46:22;101382.53;;;6.56;48.61
70256;BME280;57669;52.624;-1.688;2023-04-07T02:48:47;101384.34;;;3.85;53.06
70256;BME280;57669;52.624;-1.688;2023-04-07T02:51:12;101389.84;;;5.41;51.02
70256;BME280;57669;52.624;-1.688;2023-04-07T02:53:38;101389.93;;;3.72;52.07
70256;BME280;57669;52.624;-1.688;2023-04-07T02:56:03;101393.71;;;6.07;49.10
70256;BME280;57669;52.624;-1.688;2023-04-07T02:58:28;101396.52;;;6.62;47.95
70256;BME280;57669;52.624;-1.688;2023-04-07T03:00:53;101391.38;;;5.57;48.70
70256;BME280;57669;52.624;-1.688;2023-04-07T03:03:18;101390.15;;;4.46;51.20
70256;BME280;57669;52.624;-1.688;2023-04-07T03:05:43;101391.39;;;4.61;51.04
70256;BME280;57669;52.624;-1.688;2023-04-07T03:08:08;101389.62;;;5.77;48.89
70256;BME280;57669;52.624;-1.688;2023-04-07T03:10:33;101390.08;;;5.13;49.48
70256;BME280;57669;52.624;-1.688;2023-04-07T03:12:59;101390.83;;;6.29;46.96
70256;BME280;57669;52.624;-1.688;2023-04-07T03:15:24;101396.91;;;7.25;45.57
70256;BME280;57669;52.624;-1.688;2023-04-07T03:17:49;101402.97;;;5.13;50.19
70256;BME280;57669;52.624;-1.688;2023-04-07T03:20:15;101401.28;;;3.85;53.43
70256;BME280;57669;52.624;-1.688;2023-04-07T03:22:40;101400.63;;;4.68;51.20
70256;BME280;57669;52.624;-1.688;2023-04-07T03:25:05;101401.18;;;4.28;51.60
70256;BME280;57669;52.624;-1.688;2023-04-07T03:27:35;101402.57;;;4.25;52.74
70256;BME280;57669;52.624;-1.688;2023-04-07T03:29:56;101405.97;;;1.30;59.47
70256;BME280;57669;52.624;-1.688;2023-04-07T03:32:21;101404.60;;;4.07;54.15
70256;BME280;57669;52.624;-1.688;2023-04-07T03:34:46;101406.53;;;2.99;54.38
70256;BME280;57669;52.624;-1.688;2023-04-07T03:37:12;101406.55;;;4.71;51.51
70256;BME280;57669;52.624;-1.688;2023-04-07T03:42:02;101411.01;;;4.18;49.86
70256;BME280;57669;52.624;-1.688;2023-04-07T03:44:27;101414.50;;;4.39;50.48
70256;BME280;57669;52.624;-1.688;2023-04-07T03:46:53;101416.10;;;4.59;50.86
70256;BME280;57669;52.624;-1.688;2023-04-07T03:49:18;101414.61;;;5.98;48.00
70256;BME280;57669;52.624;-1.688;2023-04-07T03:51:43;101414.46;;;6.16;46.99
70256;BME280;57669;52.624;-1.688;2023-04-07T03:54:09;101407.03;;;3.48;52.12
70256;BME280;57669;52.624;-1.688;2023-04-07T03:56:34;101402.83;;;3.21;53.10
70256;BME280;57669;52.624;-1.688;2023-04-07T03:58:59;101404.77;;;4.99;49.43
70256;BME280;57669;52.624;-1.688;2023-04-07T04:01:24;101408.92;;;6.50;46.36
70256;BME280;57669;52.624;-1.688;2023-04-07T04:03:49;101417.95;;;4.21;50.05
70256;BME280;57669;52.624;-1.688;2023-04-07T04:06:15;101417.90;;;5.07;48.78
70256;BME280;57669;52.624;-1.688;2023-04-07T04:08:40;101413.85;;;6.89;45.56
70256;BME280;57669;52.624;-1.688;2023-04-07T04:11:05;101414.04;;;6.59;45.68
70256;BME280;57669;52.624;-1.688;2023-04-07T04:13:31;101415.41;;;7.74;43.02
70256;BME280;57669;52.624;-1.688;2023-04-07T04:15:56;101417.47;;;7.55;43.60
70256;BME280;57669;52.624;-1.688;2023-04-07T04:18:22;101416.05;;;5.26;47.08
70256;BME280;57669;52.624;-1.688;2023-04-07T04:20:47;101417.58;;;5.11;47.60
70256;BME280;57669;52.624;-1.688;2023-04-07T04:23:12;101419.27;;;4.07;50.03
70256;BME280;57669;52.624;-1.688;2023-04-07T04:25:37;101425.31;;;3.52;51.67
70256;BME280;57669;52.624;-1.688;2023-04-07T04:28:03;101428.67;;;4.93;49.58
70256;BME280;57669;52.624;-1.688;2023-04-07T04:30:28;101433.13;;;4.76;49.52
70256;BME280;57669;52.624;-1.688;2023-04-07T04:32:54;101432.90;;;3.35;51.59
70256;BME280;57669;52.624;-1.688;2023-04-07T04:35:20;101440.51;;;4.90;49.11
70256;BME280;57669;52.624;-1.688;2023-04-07T04:37:45;101446.84;;;2.97;52.24
70256;BME280;57669;52.624;-1.688;2023-04-07T04:40:11;101443.65;;;3.48;52.80
70256;BME280;57669;52.624;-1.688;2023-04-07T04:42:35;101445.77;;;5.01;49.29
70256;BME280;57669;52.624;-1.688;2023-04-07T04:45:01;101446.51;;;5.38;48.80
70256;BME280;57669;52.624;-1.688;2023-04-07T04:47:26;101452.19;;;4.27;49.67
70256;BME280;57669;52.624;-1.688;2023-04-07T04:49:51;101452.06;;;3.40;51.11
70256;BME280;57669;52.624;-1.688;2023-04-07T04:52:16;101461.45;;;2.80;53.10
70256;BME280;57669;52.624;-1.688;2023-04-07T04:54:42;101468.77;;;2.95;51.24
70256;BME280;57669;52.624;-1.688;2023-04-07T04:57:08;101466.99;;;5.95;46.32
70256;BME280;57669;52.624;-1.688;2023-04-07T04:59:33;101468.76;;;5.02;48.32
70256;BME280;57669;52.624;-1.688;2023-04-07T05:01:58;101469.46;;;5.72;46.65
70256;BME280;57669;52.624;-1.688;2023-04-07T05:04:23;101475.32;;;5.28;47.41
70256;BME280;57669;52.624;-1.688;2023-04-07T05:06:49;101478.10;;;5.57;45.75
70256;BME280;57669;52.624;-1.688;2023-04-07T05:09:14;101480.55;;;5.17;46.68
70256;BME280;57669;52.624;-1.688;2023-04-07T05:11:39;101481.60;;;5.44;46.12
70256;BME280;57669;52.624;-1.688;2023-04-07T05:14:04;101482.01;;;4.71;46.25
70256;BME280;57669;52.624;-1.688;2023-04-07T05:16:29;101476.76;;;4.72;47.33
70256;BME280;57669;52.624;-1.688;2023-04-07T05:18:54;101477.29;;;4.41;47.42
70256;BME280;57669;52.624;-1.688;2023-04-07T05:21:20;101479.61;;;4.35;47.11
70256;BME280;57669;52.624;-1.688;2023-04-07T05:23:46;101481.33;;;4.37;47.96
70256;BME280;57669;52.624;-1.688;2023-04-07T05:26:11;101483.31;;;5.62;45.26
70256;BME280;57669;52.624;-1.688;2023-04-07T05:28:37;101481.41;;;6.58;42.99
70256;BME280;57669;52.624;-1.688;2023-04-07T05:31:02;101485.48;;;5.39;44.64
70256;BME280;57669;52.624;-1.688;2023-04-07T05:33:27;101484.36;;;5.82;44.73
70256;BME280;57669;52.624;-1.688;2023-04-07T05:35:52;101484.92;;;4.27;46.54
70256;BME280;57669;52.624;-1.688;2023-04-07T05:38:17;101499.57;;;3.14;49.46
70256;BME280;57669;52.624;-1.688;2023-04-07T05:40:43;101492.87;;;4.16;47.35
70256;BME280;57669;52.624;-1.688;2023-04-07T05:43:09;101494.65;;;6.00;45.03
70256;BME280;57669;52.624;-1.688;2023-04-07T05:45:35;101494.06;;;5.39;44.87
70256;BME280;57669;52.624;-1.688;2023-04-07T05:48:00;101499.58;;;3.32;48.35
70256;BME280;57669;52.624;-1.688;2023-04-07T05:50:26;101496.44;;;4.80;46.16
70256;BME280;57669;52.624;-1.688;2023-04-07T05:52:51;101500.33;;;4.98;45.97
70256;BME280;57669;52.624;-1.688;2023-04-07T05:55:16;101502.65;;;5.77;44.62
70256;BME280;57669;52.624;-1.688;2023-04-07T05:57:42;101504.93;;;5.79;44.69
70256;BME280;57669;52.624;-1.688;2023-04-07T06:00:09;101508.40;;;6.30;43.49
70256;BME280;57669;52.624;-1.688;2023-04-07T06:02:33;101507.56;;;4.64;46.34
70256;BME280;57669;52.624;-1.688;2023-04-07T06:04:59;101512.50;;;4.14;47.12
70256;BME280;57669;52.624;-1.688;2023-04-07T06:07:24;101513.18;;;5.35;45.21
70256;BME280;57669;52.624;-1.688;2023-04-07T06:09:49;101514.37;;;4.23;47.56
70256;BME280;57669;52.624;-1.688;2023-04-07T06:12:15;101519.17;;;5.30;46.12
70256;BME280;57669;52.624;-1.688;2023-04-07T06:14:40;101529.11;;;3.70;48.87
70256;BME280;57669;52.624;-1.688;2023-04-07T06:17:05;101523.42;;;4.82;47.65
70256;BME280;57669;52.624;-1.688;2023-04-07T06:19:31;101528.01;;;4.91;46.98
70256;BME280;57669;52.624;-1.688;2023-04-07T06:21:56;101538.71;;;3.29;49.80
70256;BME280;57669;52.624;-1.688;2023-04-07T06:24:22;101541.24;;;3.84;49.04
70256;BME280;57669;52.624;-1.688;2023-04-07T06:26:48;101538.80;;;5.62;46.77
70256;BME280;57669;52.624;-1.688;2023-04-07T06:29:13;101543.21;;;4.58;48.85
70256;BME280;57669;52.624;-1.688;2023-04-07T06:31:39;101544.49;;;5.53;48.02
70256;BME280;57669;52.624;-1.688;2023-04-07T06:34:04;101549.28;;;5.96;47.23
70256;BME280;57669;52.624;-1.688;2023-04-07T06:36:30;101550.07;;;7.32;44.09
70256;BME280;57669;52.624;-1.688;2023-04-07T06:38:56;101547.23;;;8.39;42.71
70256;BME280;57669;52.624;-1.688;2023-04-07T06:41:22;101542.77;;;6.08;45.98
70256;BME280;57669;52.624;-1.688;2023-04-07T06:43:49;101545.86;;;6.61;45.65
70256;BME280;57669;52.624;-1.688;2023-04-07T06:46:13;101549.32;;;8.21;42.60
70256;BME280;57669;52.624;-1.688;2023-04-07T06:48:38;101554.09;;;8.55;41.75
70256;BME280;57669;52.624;-1.688;2023-04-07T06:51:04;101557.42;;;8.28;42.17
70256;BME280;57669;52.624;-1.688;2023-04-07T06:53:29;101556.36;;;5.65;47.77
70256;BME280;57669;52.624;-1.688;2023-04-07T06:56:03;101553.68;;;7.69;44.40
70256;BME280;57669;52.624;-1.688;2023-04-07T06:58:20;101561.59;;;8.05;43.69
70256;BME280;57669;52.624;-1.688;2023-04-07T07:00:45;101562.68;;;8.43;43.23
70256;BME280;57669;52.624;-1.688;2023-04-07T07:03:11;101562.40;;;8.32;43.78
70256;BME280;57669;52.624;-1.688;2023-04-07T07:05:36;101561.99;;;5.89;49.97
70256;BME280;57669;52.624;-1.688;2023-04-07T07:08:02;101561.58;;;6.56;47.61
70256;BME280;57669;52.624;-1.688;2023-04-07T07:10:27;101566.81;;;6.15;49.24
70256;BME280;57669;52.624;-1.688;2023-04-07T07:12:52;101567.71;;;8.31;46.06
70256;BME280;57669;52.624;-1.688;2023-04-07T07:15:18;101571.18;;;4.35;54.60
70256;BME280;57669;52.624;-1.688;2023-04-07T07:17:43;101573.74;;;4.79;52.90
70256;BME280;57669;52.624;-1.688;2023-04-07T07:20:09;101577.33;;;6.31;50.84
70256;BME280;57669;52.624;-1.688;2023-04-07T07:22:34;101577.22;;;4.67;55.27
70256;BME280;57669;52.624;-1.688;2023-04-07T07:24:59;101580.38;;;4.43;55.98
70256;BME280;57669;52.624;-1.688;2023-04-07T07:27:24;101588.79;;;5.60;53.31
70256;BME280;57669;52.624;-1.688;2023-04-07T07:29:49;101595.84;;;4.21;57.73
70256;BME280;57669;52.624;-1.688;2023-04-07T07:32:15;101588.74;;;4.83;55.89
70256;BME280;57669;52.624;-1.688;2023-04-07T07:34:40;101593.47;;;4.63;56.95
70256;BME280;57669;52.624;-1.688;2023-04-07T07:37:06;101600.13;;;4.74;57.47
70256;BME280;57669;52.624;-1.688;2023-04-07T07:39:31;101597.92;;;5.91;53.95
70256;BME280;57669;52.624;-1.688;2023-04-07T07:41:56;101592.51;;;5.22;53.71
70256;BME280;57669;52.624;-1.688;2023-04-07T07:44:21;101604.62;;;4.12;58.11
70256;BME280;57669;52.624;-1.688;2023-04-07T07:46:47;101604.40;;;4.41;57.96
70256;BME280;57669;52.624;-1.688;2023-04-07T07:49:11;101605.68;;;4.25;57.36
70256;BME280;57669;52.624;-1.688;2023-04-07T07:51:36;101603.77;;;5.61;55.47
70256;BME280;57669;52.624;-1.688;2023-04-07T07:54:02;101602.90;;;7.16;51.56
70256;BME280;57669;52.624;-1.688;2023-04-07T07:56:27;101597.55;;;6.91;51.43
70256;BME280;57669;52.624;-1.688;2023-04-07T07:58:52;101596.09;;;4.95;55.91
70256;BME280;57669;52.624;-1.688;2023-04-07T08:01:17;101597.12;;;5.60;55.43
70256;BME280;57669;52.624;-1.688;2023-04-07T08:03:43;101596.76;;;5.83;54.45
70256;BME280;57669;52.624;-1.688;2023-04-07T08:06:08;101595.53;;;5.83;55.49
70256;BME280;57669;52.624;-1.688;2023-04-07T08:08:33;101600.76;;;5.57;55.55
70256;BME280;57669;52.624;-1.688;2023-04-07T08:10:58;101600.66;;;4.63;56.77
70256;BME280;57669;52.624;-1.688;2023-04-07T08:13:24;101600.46;;;5.69;55.07
70256;BME280;57669;52.624;-1.688;2023-04-07T08:15:49;101598.31;;;5.44;54.98
70256;BME280;57669;52.624;-1.688;2023-04-07T08:18:14;101595.96;;;5.22;57.08
70256;BME280;57669;52.624;-1.688;2023-04-07T08:20:39;101602.43;;;6.08;54.18
70256;BME280;57669;52.624;-1.688;2023-04-07T08:23:04;101600.88;;;5.32;56.07
70256;BME280;57669;52.624;-1.688;2023-04-07T08:25:29;101607.31;;;4.70;57.20
70256;BME280;57669;52.624;-1.688;2023-04-07T08:27:55;101605.03;;;4.54;57.50
70256;BME280;57669;52.624;-1.688;2023-04-07T08:30:20;101609.53;;;5.77;55.15
70256;BME280;57669;52.624;-1.688;2023-04-07T08:32:45;101604.90;;;6.06;53.62
70256;BME280;57669;52.624;-1.688;2023-04-07T08:35:11;101612.37;;;6.30;52.79
70256;BME280;57669;52.624;-1.688;2023-04-07T08:37:38;101612.03;;;7.59;50.46
70256;BME280;57669;52.624;-1.688;2023-04-07T08:40:03;101613.88;;;6.75;51.56
70256;BME280;57669;52.624;-1.688;2023-04-07T08:42:30;101617.83;;;6.69;51.48
70256;BME280;57669;52.624;-1.688;2023-04-07T08:44:55;101617.63;;;6.55;50.93
70256;BME280;57669;52.624;-1.688;2023-04-07T08:47:19;101614.50;;;8.14;47.51
70256;BME280;57669;52.624;-1.688;2023-04-07T08:49:45;101609.87;;;7.15;48.12
70256;BME280;57669;52.624;-1.688;2023-04-07T08:52:14;101617.05;;;8.34;46.77
70256;BME280;57669;52.624;-1.688;2023-04-07T08:54:35;101615.36;;;8.34;44.89
70256;BME280;57669;52.624;-1.688;2023-04-07T08:57:02;101613.77;;;9.10;42.44
70256;BME280;57669;52.624;-1.688;2023-04-07T08:59:26;101614.64;;;9.16;42.42
70256;BME280;57669;52.624;-1.688;2023-04-07T09:01:51;101614.95;;;8.59;40.96
70256;BME280;57669;52.624;-1.688;2023-04-07T09:04:17;101614.57;;;11.40;36.37
70256;BME280;57669;52.624;-1.688;2023-04-07T09:06:43;101609.69;;;13.14;32.34
70256;BME280;57669;52.624;-1.688;2023-04-07T09:09:09;101605.34;;;12.47;31.68
70256;BME280;57669;52.624;-1.688;2023-04-07T09:11:36;101604.64;;;16.35;27.15
70256;BME280;57669;52.624;-1.688;2023-04-07T09:14:01;101601.84;;;20.38;23.20
70256;BME280;57669;52.624;-1.688;2023-04-07T09:16:27;101605.25;;;18.40;23.87
70256;BME280;57669;52.624;-1.688;2023-04-07T09:18:52;101604.54;;;22.24;19.59
70256;BME280;57669;52.624;-1.688;2023-04-07T09:21:17;101604.32;;;21.25;19.25
70256;BME280;57669;52.624;-1.688;2023-04-07T09:23:43;101602.94;;;24.41;16.79
70256;BME280;57669;52.624;-1.688;2023-04-07T09:26:18;101603.67;;;18.96;19.98
70256;BME280;57669;52.624;-1.688;2023-04-07T09:28:40;101595.73;;;27.21;14.44
70256;BME280;57669;52.624;-1.688;2023-04-07T09:31:00;101596.22;;;22.13;17.24
70256;BME280;57669;52.624;-1.688;2023-04-07T09:33:27;101598.99;;;22.01;17.52
70256;BME280;57669;52.624;-1.688;2023-04-07T09:35:52;101590.90;;;23.03;16.55
70256;BME280;57669;52.624;-1.688;2023-04-07T09:38:17;101590.51;;;19.49;18.62
70256;BME280;57669;52.624;-1.688;2023-04-07T09:40:42;101590.81;;;24.59;15.62
70256;BME280;57669;52.624;-1.688;2023-04-07T09:43:14;101585.26;;;30.40;11.94
70256;BME280;57669;52.624;-1.688;2023-04-07T09:45:33;101580.53;;;23.67;15.29
70256;BME280;57669;52.624;-1.688;2023-04-07T09:48:04;101579.61;;;26.32;13.71
70256;BME280;57669;52.624;-1.688;2023-04-07T09:50:30;101575.33;;;26.46;13.99
70256;BME280;57669;52.624;-1.688;2023-04-07T09:52:51;101579.27;;;29.37;12.47
70256;BME280;57669;52.624;-1.688;2023-04-07T09:55:16;101578.66;;;25.63;14.07
70256;BME280;57669;52.624;-1.688;2023-04-07T09:57:43;101573.89;;;21.34;17.17
70256;BME280;57669;52.624;-1.688;2023-04-07T10:00:09;101576.82;;;24.33;15.22
70256;BME280;57669;52.624;-1.688;2023-04-07T10:02:33;101574.82;;;24.81;14.15
70256;BME280;57669;52.624;-1.688;2023-04-07T10:04:58;101571.84;;;26.79;13.79
70256;BME280;57669;52.624;-1.688;2023-04-07T10:07:24;101566.70;;;26.60;14.55
70256;BME280;57669;52.624;-1.688;2023-04-07T10:09:49;101565.40;;;25.59;14.98
70256;BME280;57669;52.624;-1.688;2023-04-07T10:12:17;101566.98;;;24.37;15.77
70256;BME280;57669;52.624;-1.688;2023-04-07T10:14:43;101567.32;;;26.56;13.96
70256;BME280;57669;52.624;-1.688;2023-04-07T10:17:06;101564.35;;;27.02;14.12
70256;BME280;57669;52.624;-1.688;2023-04-07T10:27:47;101573.10;;;12.78;30.30
70256;BME280;57669;52.624;-1.688;2023-04-07T10:30:13;101565.56;;;14.13;28.13
70256;BME280;57669;52.624;-1.688;2023-04-07T10:35:02;101566.81;;;13.70;27.71
70256;BME280;57669;52.624;-1.688;2023-04-07T10:37:29;101563.79;;;14.16;27.16
70256;BME280;57669;52.624;-1.688;2023-04-07T10:44:47;101565.26;;;14.36;26.10
70256;BME280;57669;52.624;-1.688;2023-04-07T10:47:09;101564.28;;;14.15;25.22
70256;BME280;57669;52.624;-1.688;2023-04-07T10:49:36;101558.24;;;13.41;26.31
70256;BME280;57669;52.624;-1.688;2023-04-07T10:54:27;101562.86;;;13.14;27.87
70256;BME280;57669;52.624;-1.688;2023-04-07T10:59:18;101560.67;;;12.32;28.26
70256;BME280;57669;52.624;-1.688;2023-04-07T11:01:46;101553.46;;;12.68;28.44
70256;BME280;57669;52.624;-1.688;2023-04-07T11:04:09;101552.77;;;13.47;27.60
70256;BME280;57669;52.624;-1.688;2023-04-07T11:06:35;101553.52;;;12.15;28.60
70256;BME280;57669;52.624;-1.688;2023-04-07T11:09:01;101554.26;;;13.12;26.68
70256;BME280;57669;52.624;-1.688;2023-04-07T11:11:35;101554.10;;;13.38;25.90
70256;BME280;57669;52.624;-1.688;2023-04-07T11:13:53;101559.21;;;13.18;25.81
70256;BME280;57669;52.624;-1.688;2023-04-07T11:16:20;101558.89;;;12.91;26.08
70256;BME280;57669;52.624;-1.688;2023-04-07T11:18:49;101556.07;;;12.86;25.89
70256;BME280;57669;52.624;-1.688;2023-04-07T11:21:11;101554.84;;;13.68;24.83
70256;BME280;57669;52.624;-1.688;2023-04-07T11:23:39;101554.60;;;14.71;25.09
70256;BME280;57669;52.624;-1.688;2023-04-07T11:26:02;101559.78;;;16.79;22.53
70256;BME280;57669;52.624;-1.688;2023-04-07T11:28:33;101559.00;;;17.00;21.95
70256;BME280;57669;52.624;-1.688;2023-04-07T11:30:53;101552.37;;;14.24;23.56
70256;BME280;57669;52.624;-1.688;2023-04-07T11:33:19;101553.93;;;17.91;20.75
70256;BME280;57669;52.624;-1.688;2023-04-07T11:35:49;101551.73;;;17.13;21.83
70256;BME280;57669;52.624;-1.688;2023-04-07T11:38:08;101552.01;;;16.53;22.08
70256;BME280;57669;52.624;-1.688;2023-04-07T11:40:35;101550.89;;;16.82;22.13
70256;BME280;57669;52.624;-1.688;2023-04-07T11:43:01;101550.15;;;18.98;20.51
70256;BME280;57669;52.624;-1.688;2023-04-07T11:45:27;101547.04;;;19.66;18.09
70256;BME280;57669;52.624;-1.688;2023-04-07T11:47:52;101542.46;;;18.70;19.13
70256;BME280;57669;52.624;-1.688;2023-04-07T11:52:44;101540.83;;;23.32;16.05
70256;BME280;57669;52.624;-1.688;2023-04-07T11:55:18;101550.83;;;20.27;17.92
70256;BME280;57669;52.624;-1.688;2023-04-07T11:57:34;101545.38;;;17.18;19.00
70256;BME280;57669;52.624;-1.688;2023-04-07T12:00:05;101548.25;;;19.70;17.62
70256;BME280;57669;52.624;-1.688;2023-04-07T12:02:32;101545.79;;;19.28;18.58
70256;BME280;57669;52.624;-1.688;2023-04-07T12:04:55;101541.63;;;17.17;20.72
70256;BME280;57669;52.624;-1.688;2023-04-07T12:07:16;101543.76;;;17.04;21.21
70256;BME280;57669;52.624;-1.688;2023-04-07T12:09:41;101545.84;;;20.19;17.56
70256;BME280;57669;52.624;-1.688;2023-04-07T12:12:07;101536.95;;;18.07;18.98
70256;BME280;57669;52.624;-1.688;2023-04-07T12:14:34;101541.49;;;18.01;18.51
70256;BME280;57669;52.624;-1.688;2023-04-07T12:16:58;101548.76;;;19.27;17.64
70256;BME280;57669;52.624;-1.688;2023-04-07T12:19:31;101544.07;;;17.65;19.39
70256;BME280;57669;52.624;-1.688;2023-04-07T12:21:49;101541.02;;;16.38;21.11
70256;BME280;57669;52.624;-1.688;2023-04-07T12:24:15;101540.91;;;15.51;21.45
70256;BME280;57669;52.624;-1.688;2023-04-07T12:26:46;101535.79;;;16.68;20.87
70256;BME280;57669;52.624;-1.688;2023-04-07T12:29:06;101539.15;;;18.11;20.11
70256;BME280;57669;52.624;-1.688;2023-04-07T12:31:32;101538.21;;;18.79;18.64
70256;BME280;57669;52.624;-1.688;2023-04-07T12:33:58;101535.53;;;16.98;18.61
70256;BME280;57669;52.624;-1.688;2023-04-07T12:36:26;101534.04;;;19.10;17.36
70256;BME280;57669;52.624;-1.688;2023-04-07T12:38:55;101529.15;;;22.85;14.12
